N36F PASC-PAQT

Flight info

Callsign N36F
Flight time 0h 37m
Altitude 6000
Route SCC T235 ZADRO
Aircraft K100/L-VGD/C

Departure

Time 2026-04-28 19:00
Airport Deadhorse Airport (PASC)

Arrival

Time 2026-04-28 19:37
Airport Nuiqsut Airport (PAQT)
Time Latitude Longitude Altitude Speed Heading
2026-04-28 18:37 70.19790 -148.46731 60 ft 0 kts 350°
2026-04-28 18:55 70.19795 -148.46730 58 ft 3 kts 19°
2026-04-28 18:55 70.19804 -148.46676 56 ft 4 kts 83°
2026-04-28 18:55 70.19776 -148.46543 57 ft 10 kts 151°
2026-04-28 18:55 70.19697 -148.46502 57 ft 13 kts 181°
2026-04-28 18:56 70.19630 -148.46714 59 ft 18 kts 251°
2026-04-28 18:56 70.19593 -148.47101 58 ft 21 kts 255°
2026-04-28 18:56 70.19554 -148.47523 56 ft 22 kts 253°
2026-04-28 18:56 70.19512 -148.47985 55 ft 24 kts 255°
2026-04-28 18:57 70.19463 -148.48482 58 ft 26 kts 255°
2026-04-28 18:57 70.19419 -148.48976 59 ft 21 kts 250°
2026-04-28 18:57 70.19340 -148.49059 55 ft 0 kts 167°
2026-04-28 18:59 70.19320 -148.49049 59 ft 6 kts 170°
2026-04-28 18:59 70.19273 -148.48964 64 ft 10 kts 127°
2026-04-28 18:59 70.19283 -148.48644 64 ft 36 kts 73°
2026-04-28 18:59 70.19372 -148.47565 129 ft 64 kts 74°
2026-04-28 19:00 70.19523 -148.46180 296 ft 77 kts 70°
2026-04-28 19:00 70.19698 -148.44591 578 ft 84 kts 71°
2026-04-28 19:00 70.19870 -148.42925 876 ft 91 kts 73°
2026-04-28 19:00 70.20079 -148.40951 1007 ft 108 kts 76°
2026-04-28 19:01 70.20358 -148.38836 1233 ft 115 kts 59°
2026-04-28 19:01 70.21107 -148.37855 1568 ft 135 kts 10°
2026-04-28 19:01 70.22033 -148.39209 1663 ft 169 kts 320°
2026-04-28 19:01 70.22457 -148.42468 1920 ft 176 kts 267°
2026-04-28 19:02 70.22109 -148.45683 2356 ft 157 kts 235°
2026-04-28 19:02 70.21623 -148.48385 2873 ft 140 kts 233°
2026-04-28 19:02 70.21175 -148.50649 3452 ft 118 kts 234°
2026-04-28 19:02 70.20714 -148.52616 3833 ft 117 kts 231°
2026-04-28 19:03 70.20445 -148.54808 4235 ft 114 kts 254°
2026-04-28 19:03 70.20323 -148.57144 4559 ft 121 kts 264°
2026-04-28 19:03 70.20316 -148.59642 4967 ft 122 kts 266°
2026-04-28 19:03 70.20317 -148.62181 5359 ft 125 kts 266°
2026-04-28 19:04 70.20368 -148.64767 5713 ft 127 kts 267°
2026-04-28 19:04 70.20360 -148.67554 5857 ft 147 kts 268°
2026-04-28 19:04 70.20404 -148.70726 5902 ft 164 kts 270°
2026-04-28 19:04 70.20454 -148.74167 5926 ft 174 kts 268°
2026-04-28 19:05 70.20500 -148.77703 5971 ft 168 kts 269°
2026-04-28 19:05 70.20529 -148.81058 5970 ft 160 kts 269°
2026-04-28 19:05 70.20561 -148.84260 5974 ft 157 kts 269°
2026-04-28 19:05 70.20607 -148.87466 5975 ft 156 kts 269°
2026-04-28 19:06 70.20652 -148.90660 5979 ft 155 kts 270°
2026-04-28 19:06 70.20695 -148.93839 5975 ft 155 kts 270°
2026-04-28 19:06 70.20737 -148.97011 5982 ft 155 kts 270°
2026-04-28 19:06 70.20778 -149.00186 5979 ft 155 kts 268°
2026-04-28 19:07 70.20819 -149.03380 5980 ft 156 kts 269°
2026-04-28 19:07 70.20863 -149.06593 5989 ft 157 kts 268°
2026-04-28 19:07 70.20905 -149.09814 5990 ft 157 kts 268°
2026-04-28 19:07 70.20944 -149.12992 5989 ft 157 kts 269°
2026-04-28 19:08 70.20984 -149.16210 5990 ft 157 kts 268°
2026-04-28 19:08 70.21022 -149.19426 5990 ft 156 kts 269°
2026-04-28 19:08 70.21059 -149.22623 5990 ft 156 kts 269°
2026-04-28 19:08 70.21095 -149.25818 6003 ft 156 kts 268°
2026-04-28 19:09 70.21130 -149.29029 5992 ft 157 kts 268°
2026-04-28 19:09 70.21167 -149.32245 5992 ft 157 kts 268°
2026-04-28 19:09 70.21203 -149.35469 5992 ft 157 kts 268°
2026-04-28 19:09 70.21239 -149.38691 5991 ft 157 kts 268°
2026-04-28 19:10 70.21273 -149.41871 5991 ft 157 kts 268°
2026-04-28 19:10 70.21307 -149.45097 5991 ft 157 kts 268°
2026-04-28 19:10 70.21341 -149.48323 5991 ft 157 kts 268°
2026-04-28 19:10 70.21374 -149.51547 5991 ft 157 kts 268°
2026-04-28 19:11 70.21406 -149.54775 5992 ft 158 kts 267°
2026-04-28 19:11 70.21438 -149.58008 5992 ft 158 kts 267°
2026-04-28 19:11 70.21470 -149.61242 5992 ft 158 kts 268°
2026-04-28 19:11 70.21501 -149.64477 5996 ft 157 kts 268°
2026-04-28 19:12 70.21532 -149.67691 5993 ft 156 kts 269°
2026-04-28 19:12 70.21559 -149.70846 5993 ft 156 kts 269°
2026-04-28 19:12 70.21587 -149.74040 6005 ft 156 kts 267°
2026-04-28 19:12 70.21616 -149.77240 6008 ft 156 kts 269°
2026-04-28 19:13 70.21644 -149.80434 6001 ft 155 kts 269°
2026-04-28 19:13 70.21670 -149.83620 6001 ft 155 kts 269°
2026-04-28 19:13 70.21695 -149.86813 6001 ft 156 kts 267°
2026-04-28 19:13 70.21724 -149.90022 6001 ft 156 kts 269°
2026-04-28 19:14 70.21750 -149.93223 6003 ft 156 kts 267°
2026-04-28 19:14 70.21772 -149.96386 6003 ft 157 kts 267°
2026-04-28 19:14 70.21798 -149.99624 6006 ft 159 kts 267°
2026-04-28 19:14 70.21824 -150.02878 6006 ft 158 kts 269°
2026-04-28 19:15 70.21847 -150.06110 6006 ft 157 kts 268°
2026-04-28 19:15 70.21868 -150.09345 6006 ft 158 kts 267°
2026-04-28 19:15 70.21890 -150.12592 6007 ft 158 kts 268°
2026-04-28 19:15 70.21905 -150.14733 6006 ft 157 kts 268°
2026-04-28 19:16 70.21932 -150.18996 6001 ft 156 kts 269°
2026-04-28 19:16 70.21839 -150.22172 6008 ft 154 kts 257°
2026-04-28 19:16 70.21659 -150.25273 6008 ft 154 kts 258°
2026-04-28 19:16 70.21489 -150.28408 6009 ft 155 kts 258°
2026-04-28 19:17 70.21320 -150.31554 6007 ft 155 kts 257°
2026-04-28 19:17 70.21150 -150.34704 6008 ft 155 kts 258°
2026-04-28 19:17 70.20977 -150.37854 6008 ft 156 kts 256°
2026-04-28 19:17 70.20802 -150.41019 6009 ft 157 kts 256°
2026-04-28 19:18 70.20632 -150.44147 6010 ft 156 kts 256°
2026-04-28 19:18 70.20457 -150.47318 6010 ft 157 kts 258°
2026-04-28 19:18 70.20283 -150.50480 6010 ft 156 kts 256°
2026-04-28 19:18 70.20108 -150.53642 6020 ft 156 kts 256°
2026-04-28 19:19 70.19933 -150.56799 6020 ft 156 kts 258°
2026-04-28 19:19 70.19757 -150.59939 6023 ft 155 kts 257°
2026-04-28 19:19 70.19582 -150.63063 6021 ft 154 kts 258°
2026-04-28 19:19 70.19405 -150.66195 6021 ft 155 kts 258°
2026-04-28 19:20 70.19231 -150.69338 6020 ft 155 kts 257°
2026-04-28 19:20 70.19054 -150.72432 6020 ft 155 kts 257°
2026-04-28 19:20 70.18874 -150.75576 6029 ft 156 kts 255°
2026-04-28 19:20 70.18697 -150.78714 6011 ft 155 kts 256°
2026-04-28 19:21 70.18515 -150.81930 5795 ft 161 kts 256°
2026-04-28 19:21 70.18329 -150.85194 5573 ft 161 kts 256°
2026-04-28 19:21 70.18142 -150.88424 5357 ft 159 kts 257°
2026-04-28 19:21 70.17957 -150.91621 5146 ft 157 kts 257°
2026-04-28 19:22 70.17775 -150.94765 4980 ft 155 kts 256°
2026-04-28 19:22 70.17654 -150.96829 4860 ft 154 kts 257°
2026-04-28 19:22 70.17415 -151.00923 4612 ft 153 kts 255°
2026-04-28 19:22 70.17232 -151.04010 4423 ft 153 kts 258°
2026-04-28 19:23 70.17056 -151.07084 4238 ft 152 kts 257°
2026-04-28 19:23 70.16874 -151.10155 4052 ft 152 kts 257°
2026-04-28 19:23 70.16693 -151.13234 3867 ft 153 kts 255°
2026-04-28 19:23 70.16508 -151.16335 3683 ft 154 kts 256°
2026-04-28 19:24 70.16325 -151.19435 3502 ft 153 kts 259°
2026-04-28 19:24 70.16144 -151.22503 3322 ft 152 kts 257°
2026-04-28 19:24 70.15956 -151.25584 3136 ft 153 kts 257°
2026-04-28 19:24 70.15778 -151.28632 2954 ft 153 kts 258°
2026-04-28 19:25 70.15592 -151.31719 2761 ft 154 kts 258°
2026-04-28 19:25 70.15401 -151.34858 2571 ft 158 kts 257°
2026-04-28 19:25 70.15208 -151.38062 2381 ft 160 kts 258°
2026-04-28 19:25 70.15009 -151.41306 2186 ft 162 kts 258°
2026-04-28 19:26 70.14785 -151.44524 2023 ft 161 kts 256°
2026-04-28 19:26 70.14594 -151.47781 1836 ft 161 kts 262°
2026-04-28 19:26 70.14423 -151.51002 1733 ft 156 kts 260°
2026-04-28 19:26 70.14231 -151.54069 1651 ft 156 kts 253°
2026-04-28 19:27 70.13756 -151.56836 1682 ft 151 kts 230°
2026-04-28 19:27 70.13165 -151.59435 1651 ft 154 kts 234°
2026-04-28 19:27 70.12665 -151.62196 1703 ft 153 kts 238°
2026-04-28 19:27 70.12169 -151.64972 1717 ft 154 kts 237°
2026-04-28 19:28 70.11487 -151.67259 1691 ft 145 kts 195°
2026-04-28 19:28 70.10606 -151.67164 1666 ft 119 kts 136°
2026-04-28 19:28 70.10305 -151.65244 1644 ft 107 kts 79°
2026-04-28 19:28 70.10773 -151.63519 1627 ft 114 kts 47°
2026-04-28 19:29 70.11405 -151.62169 1680 ft 111 kts 46°
2026-04-28 19:29 70.11825 -151.61232 1671 ft 113 kts 48°
2026-04-28 19:29 70.12587 -151.59267 1725 ft 107 kts 58°
2026-04-28 19:29 70.13068 -151.57569 1711 ft 109 kts 55°
2026-04-28 19:30 70.13558 -151.55872 1700 ft 111 kts 57°
2026-04-28 19:30 70.13998 -151.54087 1712 ft 106 kts 66°
2026-04-28 19:30 70.14359 -151.52186 1685 ft 108 kts 68°
2026-04-28 19:30 70.14659 -151.50182 1685 ft 107 kts 70°
2026-04-28 19:31 70.14956 -151.48166 1665 ft 109 kts 71°
2026-04-28 19:31 70.15209 -151.46101 1683 ft 106 kts 74°
2026-04-28 19:31 70.15474 -151.44050 1645 ft 108 kts 71°
2026-04-28 19:31 70.15732 -151.42025 1662 ft 105 kts 73°
2026-04-28 19:32 70.16001 -151.40020 1667 ft 105 kts 73°
2026-04-28 19:32 70.16238 -151.37992 1673 ft 106 kts 72°
2026-04-28 19:32 70.16510 -151.35945 1643 ft 108 kts 72°
2026-04-28 19:32 70.16764 -151.33919 1648 ft 107 kts 73°
2026-04-28 19:33 70.17016 -151.31934 1695 ft 101 kts 74°
2026-04-28 19:33 70.17250 -151.30025 1687 ft 96 kts 72°
2026-04-28 19:33 70.17485 -151.28252 1653 ft 89 kts 74°
2026-04-28 19:33 70.17691 -151.26656 1621 ft 78 kts 70°
2026-04-28 19:34 70.17883 -151.25218 1622 ft 77 kts 72°
2026-04-28 19:34 70.18086 -151.23709 1563 ft 79 kts 72°
2026-04-28 19:34 70.18285 -151.22229 1532 ft 75 kts 71°
2026-04-28 19:34 70.18452 -151.20824 1492 ft 73 kts 71°
2026-04-28 19:35 70.18622 -151.19355 1355 ft 79 kts 75°
2026-04-28 19:35 70.18793 -151.17774 1191 ft 86 kts 74°
2026-04-28 19:35 70.19025 -151.16069 1031 ft 92 kts 66°
2026-04-28 19:35 70.19292 -151.14344 903 ft 94 kts 67°
2026-04-28 19:36 70.19508 -151.12497 772 ft 96 kts 72°
2026-04-28 19:36 70.19731 -151.10575 653 ft 99 kts 66°
2026-04-28 19:36 70.19960 -151.08772 555 ft 90 kts 67°
2026-04-28 19:36 70.20163 -151.07066 409 ft 86 kts 65°
2026-04-28 19:37 70.20371 -151.05441 251 ft 82 kts 63°
2026-04-28 19:37 70.20503 -151.04427 188 ft 77 kts 64°
2026-04-28 19:37 70.20727 -151.02614 70 ft 62 kts 65°
2026-04-28 19:37 70.20840 -151.01688 46 ft 39 kts 67°
2026-04-28 19:38 70.20941 -151.00999 50 ft 40 kts 68°
2026-04-28 19:38 70.21036 -151.00275 46 ft 35 kts 67°
2026-04-28 19:38 70.21110 -150.99714 48 ft 25 kts 72°
2026-04-28 19:38 70.21174 -150.99454 44 ft 12 kts
2026-04-28 19:39 70.21250 -150.99512 46 ft 11 kts 332°
2026-04-28 19:39 70.21254 -150.99519 46 ft 0 kts 329°
2026-04-28 19:39 70.21263 -150.99534 45 ft 4 kts 321°
2026-04-28 19:39 70.21278 -150.99690 44 ft 12 kts 266°
2026-04-28 19:40 70.21266 -150.99764 44 ft 0 kts 186°